createdAt,value
2018-11-23T00:00:10.289Z,87.80
2018-11-23T00:01:10.299Z,83.50
2018-11-23T00:02:10.298Z,94.40
2018-11-23T00:03:10.265Z,83.10
2018-11-23T00:04:10.255Z,89.40
2018-11-23T00:05:10.241Z,82.00
2018-11-23T00:06:10.248Z,83.60
2018-11-23T00:07:10.241Z,79.00
2018-11-23T00:08:10.215Z,85.90
2018-11-23T00:09:10.201Z,83.00
2018-11-23T00:10:11.229Z,83.00
2018-11-23T00:11:10.182Z,89.70
2018-11-23T00:12:10.166Z,83.30
2018-11-23T00:13:10.189Z,94.30
2018-11-23T00:14:10.147Z,86.00
2018-11-23T00:15:10.135Z,74.30
2018-11-23T00:16:10.132Z,76.50
2018-11-23T00:17:10.122Z,70.70
2018-11-23T00:18:10.126Z,68.80
2018-11-23T00:19:10.096Z,73.50
2018-11-23T00:20:10.099Z,71.00
2018-11-23T00:21:10.084Z,69.70
2018-11-23T00:22:10.085Z,79.80
2018-11-23T00:23:10.060Z,83.80
2018-11-23T00:24:10.068Z,79.00
2018-11-23T00:25:10.035Z,73.40
2018-11-23T00:26:10.030Z,78.50
2018-11-23T00:27:10.019Z,79.30
2018-11-23T00:28:10.006Z,75.10
2018-11-23T00:29:09.994Z,74.40
2018-11-23T00:30:10.008Z,68.60
2018-11-23T00:31:09.973Z,60.40
2018-11-23T00:32:09.966Z,63.30
2018-11-23T00:33:09.956Z,65.50
2018-11-23T00:34:09.940Z,70.00
2018-11-23T00:35:09.935Z,69.60
2018-11-23T00:36:09.941Z,66.80
2018-11-23T00:37:09.915Z,72.70
2018-11-23T00:38:09.905Z,66.00
2018-11-23T00:39:09.910Z,68.10
2018-11-23T00:40:10.029Z,66.60
2018-11-23T00:41:09.885Z,64.60
2018-11-23T00:42:09.857Z,64.70
2018-11-23T00:43:09.850Z,65.80
2018-11-23T00:44:09.849Z,58.90
2018-11-23T00:45:09.834Z,62.60
2018-11-23T00:46:09.845Z,63.40
2018-11-23T00:47:09.812Z,70.00
2018-11-23T00:48:09.799Z,61.30
2018-11-23T00:49:09.786Z,58.40
2018-11-23T00:50:09.784Z,59.00
2018-11-23T00:51:09.797Z,52.90
2018-11-23T00:52:09.757Z,61.60
2018-11-23T00:53:09.748Z,65.20
2018-11-23T00:54:09.734Z,60.90
2018-11-23T00:55:09.729Z,56.60
2018-11-23T00:56:09.718Z,62.60
2018-11-23T00:57:09.760Z,55.80
2018-11-23T00:58:09.708Z,67.40
2018-11-23T00:59:09.688Z,57.30
2018-11-23T01:00:09.676Z,61.10
2018-11-23T01:01:09.662Z,61.40
2018-11-23T01:02:09.656Z,62.60
2018-11-23T01:03:09.662Z,56.50
2018-11-23T01:04:09.641Z,55.20
2018-11-23T01:05:09.642Z,64.60
2018-11-23T01:06:09.614Z,60.40
2018-11-23T01:07:09.634Z,61.00
2018-11-23T01:08:09.611Z,59.40
2018-11-23T01:09:09.607Z,59.20
2018-11-23T01:10:09.577Z,52.90
2018-11-23T01:11:09.564Z,58.20
2018-11-23T01:12:09.572Z,59.40
2018-11-23T01:13:09.540Z,57.30
2018-11-23T01:14:09.529Z,56.30
2018-11-23T01:15:09.529Z,53.50
2018-11-23T01:16:09.538Z,58.60
2018-11-23T01:17:09.505Z,66.60
2018-11-23T01:18:09.494Z,64.10
2018-11-23T01:19:09.486Z,61.70
2018-11-23T01:20:09.472Z,63.00
2018-11-23T01:21:09.474Z,57.30
2018-11-23T01:22:09.483Z,55.50
2018-11-23T01:23:09.442Z,57.60
2018-11-23T01:24:09.428Z,59.10
2018-11-23T01:25:09.417Z,65.00
2018-11-23T01:26:09.406Z,59.30
2018-11-23T01:27:09.399Z,56.70
2018-11-23T01:28:09.411Z,54.30
2018-11-23T01:29:09.383Z,61.70
2018-11-23T01:30:09.372Z,58.00
2018-11-23T01:31:09.364Z,58.70
2018-11-23T01:32:09.347Z,58.70
2018-11-23T01:33:09.352Z,61.60
2018-11-23T01:34:09.328Z,55.20
2018-11-23T01:35:09.316Z,55.50
2018-11-23T01:36:09.307Z,62.00
2018-11-23T01:37:09.299Z,58.20
2018-11-23T01:38:09.300Z,56.40
2018-11-23T01:39:09.275Z,54.40
2018-11-23T01:40:09.284Z,60.10
2018-11-23T01:41:09.257Z,64.50
2018-11-23T01:42:09.275Z,65.90
2018-11-23T01:43:09.235Z,63.50
2018-11-23T01:44:09.224Z,64.40
2018-11-23T01:45:09.212Z,63.50
2018-11-23T01:46:09.226Z,59.30
2018-11-23T01:47:09.192Z,66.80
2018-11-23T01:48:09.184Z,52.90
2018-11-23T01:49:09.178Z,67.00
2018-11-23T01:50:09.168Z,64.00
2018-11-23T01:51:09.154Z,65.00
2018-11-23T01:52:09.181Z,61.70
2018-11-23T01:53:09.131Z,57.30
2018-11-23T01:54:09.129Z,69.90
2018-11-23T01:55:09.112Z,67.90
2018-11-23T01:56:09.101Z,51.80
2018-11-23T01:57:09.093Z,52.50
2018-11-23T01:58:09.099Z,53.80
2018-11-23T01:59:09.068Z,51.50
2018-11-23T02:00:09.062Z,47.40
2018-11-23T02:01:09.053Z,49.60
2018-11-23T02:02:09.048Z,55.10
2018-11-23T02:03:09.059Z,55.60
2018-11-23T02:04:09.018Z,54.60
2018-11-23T02:05:09.005Z,50.30
2018-11-23T02:06:08.995Z,47.80
2018-11-23T02:07:08.989Z,55.00
2018-11-23T02:08:09.008Z,53.80
2018-11-23T02:09:08.970Z,60.70
2018-11-23T02:10:08.955Z,58.60
2018-11-23T02:11:08.946Z,62.20
2018-11-23T02:12:08.937Z,54.20
2018-11-23T02:13:08.931Z,58.80
2018-11-23T02:14:08.944Z,59.90
2018-11-23T02:15:08.926Z,55.20
2018-11-23T02:16:08.898Z,61.20
2018-11-23T02:17:08.881Z,61.70
2018-11-23T02:18:08.870Z,61.20
2018-11-23T02:19:08.862Z,62.40
2018-11-23T02:20:08.875Z,54.30
2018-11-23T02:21:08.849Z,48.70
2018-11-23T02:22:08.839Z,53.70
2018-11-23T02:23:08.827Z,55.00
2018-11-23T02:24:08.813Z,50.00
2018-11-23T02:25:08.814Z,60.50
2018-11-23T02:26:08.813Z,55.30
2018-11-23T02:27:08.801Z,63.40
2018-11-23T02:28:08.814Z,55.50
2018-11-23T02:29:08.757Z,54.50
2018-11-23T02:30:08.749Z,58.10
2018-11-23T02:31:08.740Z,56.90
2018-11-23T02:32:08.748Z,51.10
2018-11-23T02:33:08.723Z,65.10
2018-11-23T02:34:08.714Z,53.30
2018-11-23T02:35:08.701Z,51.30
2018-11-23T02:36:08.689Z,51.00
2018-11-23T02:37:08.701Z,59.70
2018-11-23T02:38:08.666Z,52.30
2018-11-23T02:39:08.656Z,49.70
2018-11-23T02:40:08.649Z,53.60
2018-11-23T02:41:08.641Z,60.00
2018-11-23T02:42:08.626Z,55.00
2018-11-23T02:43:08.633Z,53.90
2018-11-23T02:44:08.624Z,50.30
2018-11-23T02:45:08.599Z,47.50
2018-11-23T02:46:08.589Z,53.10
2018-11-23T02:47:08.595Z,56.60
2018-11-23T02:48:08.583Z,58.00
2018-11-23T02:49:08.553Z,59.80
2018-11-23T02:50:08.545Z,61.10
2018-11-23T02:51:08.533Z,48.50
2018-11-23T02:52:08.524Z,51.10
2018-11-23T02:53:08.546Z,51.30
2018-11-23T02:54:08.507Z,50.00
2018-11-23T02:55:08.496Z,57.10
2018-11-23T02:56:08.494Z,55.70
2018-11-23T02:57:08.469Z,64.40
2018-11-23T02:58:08.466Z,60.90
2018-11-23T02:59:08.489Z,49.40
2018-11-23T03:00:08.440Z,49.30
2018-11-23T03:01:08.429Z,57.40
2018-11-23T03:02:08.443Z,58.70
2018-11-23T03:03:08.412Z,61.00
2018-11-23T03:04:08.404Z,62.60
2018-11-23T03:05:08.398Z,53.20
2018-11-23T03:06:08.388Z,55.30
2018-11-23T03:07:08.396Z,58.60
2018-11-23T03:08:08.359Z,57.60
2018-11-23T03:09:08.346Z,54.60
2018-11-23T03:10:08.338Z,51.70
2018-11-23T03:11:08.333Z,58.00
2018-11-23T03:12:08.323Z,56.10
2018-11-23T03:13:08.332Z,59.20
2018-11-23T03:14:08.296Z,64.20
2018-11-23T03:15:08.287Z,63.00
2018-11-23T03:16:08.279Z,56.60
2018-11-23T03:17:08.272Z,67.20
2018-11-23T03:18:08.290Z,63.00
2018-11-23T03:19:08.248Z,71.00
2018-11-23T03:20:08.236Z,54.60
2018-11-23T03:21:08.226Z,55.40
2018-11-23T03:22:08.213Z,53.50
2018-11-23T03:23:08.206Z,63.10
2018-11-23T03:24:08.217Z,68.20
2018-11-23T03:25:08.193Z,60.20
2018-11-23T03:26:08.179Z,57.50
2018-11-23T03:27:08.166Z,66.10
2018-11-23T03:28:08.171Z,57.70
2018-11-23T03:29:08.151Z,54.70
2018-11-23T03:30:08.139Z,55.80
2018-11-23T03:31:12.489Z,55.10
2018-11-23T03:32:08.139Z,57.70
2018-11-23T03:33:08.101Z,65.30
2018-11-23T03:34:08.091Z,58.40
2018-11-23T03:35:08.085Z,51.80
2018-11-23T03:36:08.075Z,49.80
2018-11-23T03:37:08.083Z,51.30
2018-11-23T03:38:08.055Z,45.50
2018-11-23T03:39:08.042Z,58.50
2018-11-23T03:40:08.029Z,49.00
2018-11-23T03:41:08.017Z,47.50
2018-11-23T03:42:08.028Z,55.40
2018-11-23T03:43:07.998Z,60.80
2018-11-23T03:44:07.996Z,52.50
2018-11-23T03:45:07.983Z,59.80
2018-11-23T03:46:07.987Z,60.10
2018-11-23T03:47:07.983Z,57.80
2018-11-23T03:48:07.950Z,62.70
2018-11-23T03:49:07.941Z,53.40
2018-11-23T03:50:07.931Z,57.80
2018-11-23T03:51:07.921Z,51.80
2018-11-23T03:52:07.906Z,59.80
2018-11-23T03:53:07.918Z,52.90
2018-11-23T03:54:07.884Z,52.10
2018-11-23T03:55:07.876Z,50.50
2018-11-23T03:56:07.866Z,46.00
2018-11-23T03:57:07.878Z,52.40
2018-11-23T03:58:07.848Z,52.20
2018-11-23T03:59:07.835Z,45.40
2018-11-23T04:00:07.839Z,52.90
2018-11-23T04:01:07.810Z,55.30
2018-11-23T04:02:07.828Z,56.30
2018-11-23T04:03:07.793Z,51.10
2018-11-23T04:04:07.782Z,51.10
2018-11-23T04:05:07.768Z,53.90
2018-11-23T04:06:07.758Z,55.10
2018-11-23T04:07:07.775Z,53.10
2018-11-23T04:08:07.742Z,52.00
2018-11-23T04:09:07.734Z,46.40
2018-11-23T04:10:07.725Z,55.60
2018-11-23T04:11:07.711Z,53.40
2018-11-23T04:12:07.697Z,55.80
2018-11-23T04:13:07.710Z,49.90
2018-11-23T04:14:07.674Z,49.50
2018-11-23T04:15:07.667Z,53.40
2018-11-23T04:16:07.661Z,51.10
2018-11-23T04:17:07.650Z,55.40
2018-11-23T04:18:07.638Z,51.60
2018-11-23T04:19:07.644Z,52.80
2018-11-23T04:20:07.617Z,50.90
2018-11-23T04:21:07.608Z,50.50
2018-11-23T04:22:07.639Z,57.90
2018-11-23T04:23:07.588Z,57.80
2018-11-23T04:24:07.576Z,56.30
2018-11-23T04:25:07.560Z,55.00
2018-11-23T04:26:07.567Z,49.20
2018-11-23T04:27:07.544Z,61.90
2018-11-23T04:28:07.533Z,56.50
2018-11-23T04:29:07.526Z,50.10
2018-11-23T04:30:07.516Z,56.90
2018-11-23T04:31:07.521Z,58.00
2018-11-23T04:32:07.491Z,52.20
2018-11-23T04:33:07.477Z,48.10
2018-11-23T04:34:07.475Z,56.20
2018-11-23T04:35:07.465Z,58.40
2018-11-23T04:36:07.467Z,54.80
2018-11-23T04:37:07.436Z,51.30
2018-11-23T04:38:07.426Z,55.50
2018-11-23T04:39:07.425Z,52.70
2018-11-23T04:40:07.428Z,58.20
2018-11-23T04:41:07.418Z,49.60
2018-11-23T04:42:07.389Z,48.80
2018-11-23T04:43:07.405Z,54.10
2018-11-23T04:44:07.363Z,53.70
2018-11-23T04:45:07.375Z,57.60
2018-11-23T04:46:07.363Z,54.80
2018-11-23T04:47:07.332Z,48.10
2018-11-23T04:48:07.332Z,54.20
2018-11-23T04:49:07.316Z,54.30
2018-11-23T04:50:07.304Z,56.50
2018-11-23T04:51:07.309Z,48.20
2018-11-23T04:52:07.288Z,49.50
2018-11-23T04:53:07.277Z,50.30
2018-11-23T04:54:07.267Z,51.10
2018-11-23T04:55:07.257Z,48.30
2018-11-23T04:56:07.257Z,48.80
2018-11-23T04:57:07.295Z,48.10
2018-11-23T04:58:07.222Z,46.10
2018-11-23T04:59:07.210Z,47.70
2018-11-23T05:00:07.206Z,48.30
2018-11-23T05:01:07.194Z,57.40
2018-11-23T05:02:07.202Z,47.50
2018-11-23T05:03:07.175Z,48.40
2018-11-23T05:04:07.158Z,45.20
2018-11-23T05:05:07.150Z,47.10
2018-11-23T05:06:07.142Z,51.40
2018-11-23T05:07:07.155Z,48.90
2018-11-23T05:08:07.117Z,50.80
2018-11-23T05:09:07.109Z,47.60
2018-11-23T05:10:07.098Z,51.90
2018-11-23T05:11:07.102Z,51.00
2018-11-23T05:12:07.082Z,57.10
2018-11-23T05:13:07.069Z,47.70
2018-11-23T05:14:07.059Z,49.00
2018-11-23T05:15:07.053Z,57.00
2018-11-23T05:16:07.053Z,51.70
2018-11-23T05:17:07.031Z,49.40
2018-11-23T05:18:07.028Z,50.80
2018-11-23T05:19:07.004Z,47.10
2018-11-23T05:20:07.000Z,55.70
2018-11-23T05:21:07.005Z,53.40
2018-11-23T05:22:07.005Z,50.30
2018-11-23T05:23:06.964Z,56.50
2018-11-23T05:24:06.959Z,59.70
2018-11-23T05:25:06.946Z,57.90
2018-11-23T05:26:06.935Z,60.30
2018-11-23T05:27:06.948Z,57.50
2018-11-23T05:28:06.910Z,61.20
2018-11-23T05:29:06.903Z,65.70
2018-11-23T05:30:06.892Z,64.80
2018-11-23T05:31:06.880Z,60.30
2018-11-23T05:32:06.894Z,54.90
2018-11-23T05:33:06.864Z,60.50
2018-11-23T05:34:06.853Z,60.70
2018-11-23T05:35:06.848Z,53.50
2018-11-23T05:36:06.827Z,61.90
2018-11-23T05:37:06.840Z,63.40
2018-11-23T05:38:06.813Z,55.10
2018-11-23T05:39:06.804Z,59.80
2018-11-23T05:40:06.788Z,55.10
2018-11-23T05:41:06.780Z,54.40
2018-11-23T05:42:06.787Z,55.60
2018-11-23T05:43:06.757Z,55.90
2018-11-23T05:44:06.756Z,51.40
2018-11-23T05:45:06.741Z,56.30
2018-11-23T05:46:06.730Z,58.60
2018-11-23T05:47:06.738Z,57.00
2018-11-23T05:48:06.706Z,52.70
2018-11-23T05:49:06.697Z,51.00
2018-11-23T05:50:06.687Z,53.40
2018-11-23T05:51:06.709Z,52.50
2018-11-23T05:52:06.690Z,55.40
2018-11-23T05:53:06.663Z,54.50
2018-11-23T05:54:06.646Z,60.50
2018-11-23T05:55:06.633Z,58.40
2018-11-23T05:56:06.646Z,53.80
2018-11-23T05:57:06.634Z,56.10
2018-11-23T05:58:06.611Z,62.10
2018-11-23T05:59:06.605Z,64.10
2018-11-23T06:00:06.581Z,57.00
2018-11-23T06:01:06.587Z,62.40
2018-11-23T06:02:06.581Z,54.80
2018-11-23T06:03:06.550Z,64.40
2018-11-23T06:04:06.550Z,59.10
2018-11-23T06:05:06.536Z,57.30
2018-11-23T06:06:06.526Z,57.10
2018-11-23T06:07:06.535Z,61.40
2018-11-23T06:08:06.503Z,52.60
2018-11-23T06:09:06.491Z,61.00
2018-11-23T06:10:06.483Z,59.00
2018-11-23T06:11:06.479Z,54.50
2018-11-23T06:12:06.475Z,52.20
2018-11-23T06:13:06.450Z,53.80
2018-11-23T06:14:06.530Z,56.60
2018-11-23T06:15:06.426Z,51.80
2018-11-23T06:16:06.424Z,55.10
2018-11-23T06:17:06.428Z,53.30
2018-11-23T06:18:06.404Z,56.80
2018-11-23T06:19:06.394Z,52.90
2018-11-23T06:20:06.417Z,51.30
2018-11-23T06:21:06.367Z,49.10
2018-11-23T06:22:06.375Z,57.70
2018-11-23T06:23:06.344Z,56.40
2018-11-23T06:24:06.340Z,60.90
2018-11-23T06:25:06.332Z,57.40
2018-11-23T06:26:06.317Z,59.20
2018-11-23T06:27:06.325Z,61.40
2018-11-23T06:28:06.299Z,52.90
2018-11-23T06:29:06.294Z,62.20
2018-11-23T06:30:06.275Z,56.90
2018-11-23T06:31:06.277Z,50.70
2018-11-23T06:32:06.273Z,52.60
2018-11-23T06:33:06.246Z,54.10
2018-11-23T06:34:06.231Z,55.10
2018-11-23T06:35:06.219Z,61.70
2018-11-23T06:36:06.217Z,56.50
2018-11-23T06:37:06.216Z,54.60
2018-11-23T06:38:06.227Z,57.40
2018-11-23T06:39:06.186Z,52.50
2018-11-23T06:40:06.168Z,52.50
2018-11-23T06:41:10.221Z,51.90
2018-11-23T06:42:06.152Z,53.80
2018-11-23T06:43:06.163Z,55.50
2018-11-23T06:44:06.136Z,55.00
2018-11-23T06:45:06.119Z,54.70
2018-11-23T06:46:06.109Z,52.20
2018-11-23T06:47:06.103Z,50.80
2018-11-23T06:48:06.110Z,56.30
2018-11-23T06:49:06.092Z,56.90
2018-11-23T06:50:06.071Z,51.50
2018-11-23T06:51:06.062Z,47.40
2018-11-23T06:52:06.099Z,50.80
2018-11-23T06:53:06.063Z,48.60
2018-11-23T06:54:06.030Z,61.50
2018-11-23T06:55:06.015Z,52.20
2018-11-23T06:56:06.015Z,50.40
2018-11-23T06:57:05.998Z,54.30
2018-11-23T06:58:06.017Z,53.10
2018-11-23T06:59:05.987Z,53.00
2018-11-23T07:00:05.971Z,51.20
2018-11-23T07:01:05.961Z,64.40
2018-11-23T07:02:05.947Z,56.20
2018-11-23T07:03:05.961Z,54.60
2018-11-23T07:04:05.922Z,55.00
2018-11-23T07:05:05.914Z,58.10
2018-11-23T07:06:05.903Z,52.00
2018-11-23T07:07:05.901Z,54.10
2018-11-23T07:08:05.910Z,53.40
2018-11-23T07:09:05.875Z,53.60
2018-11-23T07:10:05.866Z,61.50
2018-11-23T07:11:05.860Z,57.30
2018-11-23T07:12:05.842Z,54.20
2018-11-23T07:13:05.848Z,61.00
2018-11-23T07:14:05.824Z,56.50
2018-11-23T07:15:05.815Z,59.40
2018-11-23T07:16:05.803Z,60.10
2018-11-23T07:17:05.806Z,52.50
2018-11-23T07:18:05.803Z,57.70
2018-11-23T07:19:05.766Z,61.80
2018-11-23T07:20:05.767Z,60.20
2018-11-23T07:21:05.752Z,63.20
2018-11-23T07:22:05.739Z,64.70
2018-11-23T07:23:05.751Z,62.10
2018-11-23T07:24:05.714Z,66.60
2018-11-23T07:25:05.708Z,58.50
2018-11-23T07:26:05.714Z,57.50
2018-11-23T07:27:05.686Z,58.70
2018-11-23T07:28:05.700Z,55.30
2018-11-23T07:29:05.669Z,53.70
2018-11-23T07:30:05.657Z,57.50
2018-11-23T07:31:05.664Z,61.30
2018-11-23T07:32:05.639Z,55.70
2018-11-23T07:33:05.627Z,56.80
2018-11-23T07:34:05.623Z,59.60
2018-11-23T07:35:05.613Z,58.50
2018-11-23T07:36:05.611Z,61.80
2018-11-23T07:37:05.584Z,55.70
2018-11-23T07:38:05.591Z,58.60
2018-11-23T07:39:05.571Z,57.80
2018-11-23T07:40:05.561Z,58.90
2018-11-23T07:41:05.544Z,61.20
2018-11-23T07:42:05.533Z,58.20
2018-11-23T07:43:05.554Z,64.20
2018-11-23T07:44:05.512Z,56.20
2018-11-23T07:45:05.502Z,55.10
2018-11-23T07:46:05.493Z,62.10
2018-11-23T07:47:05.514Z,63.10
2018-11-23T07:48:05.474Z,60.80
2018-11-23T07:49:05.487Z,58.70
2018-11-23T07:50:05.494Z,59.70
2018-11-23T07:51:05.438Z,55.20
2018-11-23T07:52:05.441Z,58.50
2018-11-23T07:53:05.422Z,62.50
2018-11-23T07:54:05.435Z,65.00
2018-11-23T07:55:05.403Z,59.70
2018-11-23T07:56:05.410Z,64.90
2018-11-23T07:57:05.385Z,64.80
2018-11-23T07:58:05.382Z,61.00
2018-11-23T07:59:05.358Z,59.90
2018-11-23T08:00:05.371Z,65.40
2018-11-23T08:01:05.344Z,64.20
2018-11-23T08:02:05.364Z,65.60
2018-11-23T08:03:05.314Z,64.60
2018-11-23T08:04:05.332Z,59.40
2018-11-23T08:05:05.300Z,73.10
2018-11-23T08:06:05.288Z,65.60
2018-11-23T08:07:05.282Z,64.50
2018-11-23T08:08:05.262Z,61.40
2018-11-23T08:09:05.280Z,64.30
2018-11-23T08:10:05.243Z,67.50
2018-11-23T08:11:05.233Z,66.50
2018-11-23T08:12:05.230Z,70.80
2018-11-23T08:13:05.221Z,68.50
2018-11-23T08:14:05.220Z,72.80
2018-11-23T08:15:05.196Z,74.50
2018-11-23T08:16:05.180Z,72.30
2018-11-23T08:17:05.181Z,73.30
2018-11-23T08:18:05.166Z,68.70
2018-11-23T08:19:05.174Z,70.60
2018-11-23T08:20:05.139Z,75.60
2018-11-23T08:21:05.130Z,75.20
2018-11-23T08:22:05.118Z,77.90
2018-11-23T08:23:05.112Z,74.30
2018-11-23T08:24:05.134Z,73.50
2018-11-23T08:25:05.088Z,75.90
2018-11-23T08:26:05.774Z,74.00
2018-11-23T08:27:05.962Z,77.50
2018-11-23T08:28:05.087Z,78.00
2018-11-23T08:29:05.066Z,73.40
2018-11-23T08:30:05.033Z,77.30
2018-11-23T08:31:05.027Z,80.60
2018-11-23T08:32:05.022Z,80.30
2018-11-23T08:33:05.003Z,80.60
2018-11-23T08:34:05.012Z,76.80
2018-11-23T08:35:05.006Z,86.80
2018-11-23T08:36:05.002Z,76.70
2018-11-23T08:37:04.960Z,85.80
2018-11-23T08:38:04.950Z,78.80
2018-11-23T08:39:04.972Z,78.10
2018-11-23T08:40:04.923Z,86.50
2018-11-23T08:41:05.517Z,70.90
2018-11-23T08:42:04.906Z,74.10
2018-11-23T08:43:04.889Z,76.40
2018-11-23T08:44:04.911Z,101.40
2018-11-23T08:45:04.894Z,94.80
2018-11-23T08:46:04.904Z,111.10
2018-11-23T08:47:04.854Z,93.00
2018-11-23T08:48:04.835Z,93.60
2018-11-23T08:49:04.852Z,104.30
2018-11-23T08:50:04.823Z,104.70
2018-11-23T08:51:04.809Z,102.70
2018-11-23T08:52:04.791Z,71.80
2018-11-23T08:53:04.784Z,99.10
2018-11-23T08:54:04.792Z,103.80
2018-11-23T08:55:04.767Z,105.30
2018-11-23T08:56:04.759Z,106.90
2018-11-23T08:57:04.743Z,104.80
2018-11-23T08:58:04.734Z,86.50
2018-11-23T08:59:04.734Z,97.50
2018-11-23T09:00:04.731Z,115.60
2018-11-23T09:01:04.707Z,108.30
2018-11-23T09:02:04.690Z,103.70
2018-11-23T09:03:04.684Z,93.30
2018-11-23T09:04:04.664Z,83.60
2018-11-23T09:05:04.697Z,80.10
2018-11-23T09:06:04.667Z,98.80
2018-11-23T09:07:04.638Z,80.40
2018-11-23T09:08:04.621Z,83.00
2018-11-23T09:09:04.612Z,90.90
2018-11-23T09:10:04.620Z,108.50
2018-11-23T09:11:04.588Z,123.00
2018-11-23T09:12:04.585Z,127.10
2018-11-23T09:13:04.571Z,136.50
2018-11-23T09:14:04.579Z,87.40
2018-11-23T09:15:04.553Z,101.20
2018-11-23T09:16:04.552Z,89.60
2018-11-23T09:17:04.527Z,86.30
2018-11-23T09:18:04.524Z,74.80
2018-11-23T09:19:04.506Z,74.80
2018-11-23T09:20:04.572Z,88.20
2018-11-23T09:21:04.775Z,101.50
2018-11-23T09:22:04.669Z,85.00
2018-11-23T09:23:04.483Z,82.40
2018-11-23T09:24:04.477Z,83.10
2018-11-23T09:25:04.446Z,77.70
2018-11-23T09:26:04.433Z,92.60
2018-11-23T09:27:04.436Z,86.80
2018-11-23T09:28:04.406Z,79.10
2018-11-23T09:29:04.584Z,86.70
2018-11-23T09:30:04.387Z,70.50
2018-11-23T09:31:04.374Z,66.50
2018-11-23T09:32:04.370Z,80.60
2018-11-23T09:33:04.358Z,83.20
2018-11-23T09:34:04.349Z,71.00
2018-11-23T09:35:04.403Z,79.10
2018-11-23T09:36:04.341Z,73.40
2018-11-23T09:37:04.312Z,80.60
2018-11-23T09:38:04.304Z,70.70
2018-11-23T09:39:04.317Z,84.20
2018-11-23T09:40:04.279Z,71.60
2018-11-23T09:41:04.298Z,75.50
2018-11-23T09:42:04.257Z,75.40
2018-11-23T09:43:04.249Z,72.30
2018-11-23T09:44:04.242Z,78.60
2018-11-23T09:45:04.228Z,73.90
2018-11-23T09:46:04.221Z,73.70
2018-11-23T09:47:09.965Z,68.00
2018-11-23T09:48:05.229Z,63.80
2018-11-23T09:49:04.185Z,60.60
2018-11-23T09:50:04.177Z,57.40
2018-11-23T09:51:04.161Z,63.80
2018-11-23T09:52:04.177Z,60.50
2018-11-23T09:53:04.143Z,56.80
2018-11-23T09:54:04.133Z,56.60
2018-11-23T09:55:04.117Z,46.00
2018-11-23T09:56:04.115Z,51.20
2018-11-23T09:57:04.122Z,51.60
2018-11-23T09:58:04.097Z,52.60
2018-11-23T09:59:04.099Z,46.50
2018-11-23T10:00:04.064Z,51.20
2018-11-23T10:01:04.057Z,48.10
2018-11-23T10:02:04.052Z,49.40
2018-11-23T10:03:04.060Z,43.10
2018-11-23T10:04:04.049Z,43.10
2018-11-23T10:05:04.017Z,41.20
2018-11-23T10:06:04.008Z,45.90
2018-11-23T10:07:04.016Z,52.40
2018-11-23T10:08:03.996Z,49.20
2018-11-23T10:09:03.996Z,45.10
2018-11-23T10:10:03.968Z,45.00
2018-11-23T10:11:03.952Z,43.30
2018-11-23T10:12:03.933Z,46.20
2018-11-23T10:13:03.926Z,42.90
2018-11-23T10:14:03.913Z,46.20
2018-11-23T10:15:03.919Z,53.20
2018-11-23T10:16:03.896Z,44.10
2018-11-23T10:17:03.887Z,44.50
2018-11-23T10:18:03.873Z,52.00
2018-11-23T10:19:03.864Z,48.90
2018-11-23T10:20:03.867Z,47.00
2018-11-23T10:21:03.838Z,52.90
2018-11-23T10:22:03.829Z,45.50
2018-11-23T10:23:03.814Z,40.80
2018-11-23T10:24:03.833Z,42.70
2018-11-23T10:25:03.827Z,40.40
2018-11-23T10:26:03.785Z,41.90
2018-11-23T10:27:03.816Z,42.20
2018-11-23T10:28:03.770Z,38.20
2018-11-23T10:29:03.761Z,35.10
2018-11-23T10:30:03.769Z,38.00
2018-11-23T10:31:03.738Z,42.20
2018-11-23T10:32:03.753Z,36.50
2018-11-23T10:33:03.707Z,40.60
2018-11-23T10:34:03.697Z,39.20
2018-11-23T10:35:03.707Z,36.10
2018-11-23T10:36:03.680Z,42.60
2018-11-23T10:37:03.686Z,34.60
2018-11-23T10:38:03.750Z,35.00
2018-11-23T10:39:03.648Z,37.90
2018-11-23T10:40:03.635Z,32.80
2018-11-23T10:41:03.620Z,33.10
2018-11-23T10:42:03.632Z,33.20
2018-11-23T10:43:03.622Z,34.30
2018-11-23T10:44:03.590Z,32.80
2018-11-23T10:45:03.578Z,33.00
2018-11-23T10:46:03.566Z,33.60
2018-11-23T10:47:03.574Z,35.50
2018-11-23T10:48:03.550Z,34.10
2018-11-23T10:49:03.561Z,38.40
2018-11-23T10:50:03.564Z,34.20
2018-11-23T10:51:03.537Z,34.30
2018-11-23T10:52:03.517Z,34.10
2018-11-23T10:53:03.492Z,31.80
2018-11-23T10:54:03.481Z,33.10
2018-11-23T10:55:03.467Z,34.70
2018-11-23T10:56:03.472Z,32.40
2018-11-23T10:57:03.570Z,31.20
2018-11-23T10:58:03.444Z,31.30
2018-11-23T10:59:03.429Z,32.60
2018-11-23T11:00:03.422Z,31.90
2018-11-23T11:01:03.430Z,31.20
2018-11-23T11:02:03.396Z,34.70
2018-11-23T11:03:03.407Z,32.30
2018-11-23T11:04:03.370Z,31.70
2018-11-23T11:05:03.384Z,30.50
2018-11-23T11:06:03.350Z,32.60
2018-11-23T11:07:03.338Z,31.60
2018-11-23T11:08:03.362Z,31.60
2018-11-23T11:09:03.322Z,31.80
2018-11-23T11:10:03.308Z,33.20
2018-11-23T11:11:03.325Z,31.10
2018-11-23T11:12:03.303Z,32.30
2018-11-23T11:13:03.278Z,29.30
2018-11-23T11:14:03.284Z,26.90
2018-11-23T11:15:03.257Z,29.70
2018-11-23T11:16:03.239Z,29.50
2018-11-23T11:17:03.231Z,32.30
2018-11-23T11:18:03.222Z,30.10
2018-11-23T11:19:03.234Z,29.40
2018-11-23T11:20:03.217Z,29.00
2018-11-23T11:21:03.189Z,30.00
2018-11-23T11:22:03.180Z,29.50
2018-11-23T11:23:03.173Z,30.40
2018-11-23T11:24:03.157Z,29.60
2018-11-23T11:25:03.162Z,27.40
2018-11-23T11:26:03.133Z,28.50
2018-11-23T11:27:03.119Z,29.70
2018-11-23T11:28:03.117Z,31.50
2018-11-23T11:29:03.111Z,29.60
2018-11-23T11:30:03.125Z,29.00
2018-11-23T11:31:03.082Z,27.60
2018-11-23T11:32:03.076Z,30.00
2018-11-23T11:33:03.085Z,29.40
2018-11-23T11:34:03.051Z,27.40
2018-11-23T11:35:03.077Z,29.40
2018-11-23T11:36:03.024Z,29.70
2018-11-23T11:37:03.013Z,31.10
2018-11-23T11:38:03.019Z,26.30
2018-11-23T11:39:02.992Z,28.00
2018-11-23T11:40:03.005Z,27.20
2018-11-23T11:41:02.971Z,28.90
2018-11-23T11:42:03.016Z,30.20
2018-11-23T11:43:02.982Z,28.30
2018-11-23T11:44:02.942Z,27.80
2018-11-23T11:45:02.956Z,27.30
2018-11-23T11:46:02.952Z,28.80
2018-11-23T11:47:02.908Z,27.90
2018-11-23T11:48:02.913Z,28.80
2018-11-23T11:49:02.884Z,27.00
2018-11-23T11:50:02.889Z,27.50
2018-11-23T11:51:02.859Z,28.30
2018-11-23T11:52:02.856Z,28.50
2018-11-23T11:53:02.868Z,25.90
2018-11-23T11:54:02.834Z,26.80
2018-11-23T11:55:02.871Z,25.80
2018-11-23T11:56:02.812Z,28.20
2018-11-23T11:57:02.798Z,25.90
2018-11-23T11:58:02.786Z,27.70
2018-11-23T11:59:02.789Z,26.70
2018-11-23T12:00:02.768Z,25.00
2018-11-23T12:01:02.753Z,24.40
2018-11-23T12:02:02.743Z,26.90
2018-11-23T12:03:02.780Z,28.20
2018-11-23T12:04:02.731Z,26.20
2018-11-23T12:05:02.732Z,24.60
2018-11-23T12:06:02.699Z,26.10
2018-11-23T12:07:02.712Z,22.80
2018-11-23T12:08:02.675Z,29.30
2018-11-23T12:09:02.666Z,25.70
2018-11-23T12:10:02.675Z,27.90
2018-11-23T12:11:02.660Z,25.50
2018-11-23T12:12:02.637Z,26.60
2018-11-23T12:13:02.624Z,25.40
2018-11-23T12:14:02.614Z,28.20
2018-11-23T12:15:02.642Z,26.50
2018-11-23T12:16:02.586Z,27.50
2018-11-23T12:17:02.582Z,26.10
2018-11-23T12:18:02.568Z,26.70
2018-11-23T12:19:02.560Z,27.50
2018-11-23T12:20:02.562Z,28.90
2018-11-23T12:21:02.535Z,26.50
2018-11-23T12:22:02.523Z,29.40
2018-11-23T12:23:02.508Z,29.60
2018-11-23T12:24:02.522Z,29.00
2018-11-23T12:25:02.494Z,31.10
2018-11-23T12:26:02.483Z,33.20
2018-11-23T12:27:02.477Z,29.40
2018-11-23T12:28:02.454Z,29.60
2018-11-23T12:29:02.465Z,30.90
2018-11-23T12:30:02.435Z,27.80
2018-11-23T12:31:02.432Z,31.60
2018-11-23T12:32:02.436Z,28.80
2018-11-23T12:33:02.405Z,31.10
2018-11-23T12:34:02.408Z,30.40
2018-11-23T12:35:02.382Z,29.90
2018-11-23T12:36:02.420Z,28.70
2018-11-23T12:37:02.362Z,27.50
2018-11-23T12:38:02.349Z,28.60
2018-11-23T12:39:02.360Z,30.70
2018-11-23T12:40:02.343Z,29.60
2018-11-23T12:41:02.335Z,30.60
2018-11-23T12:42:02.303Z,30.90
2018-11-23T12:43:02.292Z,28.70
2018-11-23T12:44:02.311Z,27.80
2018-11-23T12:45:02.274Z,30.40
2018-11-23T12:46:02.269Z,30.00
2018-11-23T12:47:02.259Z,27.60
2018-11-23T12:48:02.493Z,29.20
2018-11-23T12:49:02.253Z,27.10
2018-11-23T12:50:02.225Z,29.70
2018-11-23T12:51:02.238Z,28.00
2018-11-23T12:52:02.214Z,28.30